Time;durP1;ratioP1;P1;durP2;ratioP2;P2;SDS_P1;SDS_P2;PMS_P1;PMS_P2;Temp;Humidity;BMP_temperature;BMP_pressure;BME280_temperature;BME280_humidity;BME280_pressure;Samples;Min_cycle;Max_cycle;Signal;HPM_P1;HPM_P2
2022/11/23 00:01:23;;;;;;;6.93;1.30;;;;;;;;;;5029899;28;20060;-68
2022/11/23 00:03:51;;;;;;;6.85;1.20;;;;;;;;;;5029867;28;20050;-68
2022/11/23 00:06:19;;;;;;;11.70;1.80;;;;;;;;;;5031195;28;20057;-69
2022/11/23 00:08:46;;;;;;;6.40;1.60;;;;;;;;;;5031338;28;20056;-68
2022/11/23 00:11:13;;;;;;;8.02;1.65;;;;;;;;;;5030226;28;20053;-69
2022/11/23 00:13:40;;;;;;;8.43;2.08;;;;;;;;;;5031378;28;20420;-68
2022/11/23 00:16:06;;;;;;;9.90;1.80;;;;;;;;;;5031221;28;20107;-68
2022/11/23 00:18:32;;;;;;;5.78;1.67;;;;;;;;;;5031169;28;20045;-68
2022/11/23 00:20:59;;;;;;;7.10;1.80;;;;;;;;;;5031232;28;20405;-68
2022/11/23 00:23:25;;;;;;;4.75;1.42;;;;;;;;;;5031336;28;20056;-68
2022/11/23 00:25:51;;;;;;;6.70;1.00;;;;;;;;;;5031346;28;20056;-68
2022/11/23 00:28:18;;;;;;;7.47;1.70;;;;;;;;;;5031210;28;20065;-68
2022/11/23 00:30:47;;;;;;;7.50;1.65;;;;;;;;;;5031387;28;20053;-68
2022/11/23 00:33:13;;;;;;;6.80;2.08;;;;;;;;;;5031003;28;20045;-68
2022/11/23 00:35:40;;;;;;;4.70;1.50;;;;;;;;;;5025172;28;20076;-68
2022/11/23 00:38:06;;;;;;;4.25;1.23;;;;;;;;;;5031504;28;20057;-68
2022/11/23 00:40:32;;;;;;;6.35;1.33;;;;;;;;;;5034596;28;20050;-68
2022/11/23 00:42:59;;;;;;;8.50;1.65;;;;;;;;;;5034465;28;20472;-68
2022/11/23 00:45:25;;;;;;;6.03;1.50;;;;;;;;;;5033281;28;20052;-68
2022/11/23 00:47:52;;;;;;;6.88;1.38;;;;;;;;;;5034809;28;20049;-68
2022/11/23 00:50:18;;;;;;;8.75;1.40;;;;;;;;;;5034290;28;20414;-68
2022/11/23 00:52:44;;;;;;;5.07;1.50;;;;;;;;;;5034282;28;20508;-68
2022/11/23 00:55:11;;;;;;;7.85;1.58;;;;;;;;;;5034361;28;20058;-68
2022/11/23 00:57:37;;;;;;;8.30;1.77;;;;;;;;;;5034679;28;20079;-68
2022/11/23 01:00:04;;;;;;;5.80;1.40;;;;;;;;;;5034003;28;20136;-68
2022/11/23 01:02:32;;;;;;;4.70;1.30;;;;;;;;;;5034002;28;20051;-69
2022/11/23 01:04:59;;;;;;;;;;;;;;;;;;5034748;28;20409;-68
2022/11/23 01:07:26;;;;;;;8.85;1.52;;;;;;;;;;5034125;28;19925;-68
2022/11/23 01:09:53;;;;;;;4.38;0.93;;;;;;;;;;5034304;28;20053;-68
2022/11/23 01:12:19;;;;;;;6.60;1.10;;;;;;;;;;5032583;28;20493;-68
2022/11/23 01:14:46;;;;;;;4.57;1.25;;;;;;;;;;5034023;28;20486;-68
2022/11/23 01:17:12;;;;;;;11.60;1.30;;;;;;;;;;5033706;28;20045;-68
2022/11/23 01:19:38;;;;;;;5.68;1.75;;;;;;;;;;5033974;28;20041;-68
2022/11/23 01:22:05;;;;;;;7.40;0.95;;;;;;;;;;5033918;28;20413;-68
2022/11/23 01:24:31;;;;;;;9.10;1.15;;;;;;;;;;5033775;28;20060;-68
2022/11/23 01:26:57;;;;;;;4.78;1.00;;;;;;;;;;5032539;28;20136;-68
2022/11/23 01:29:24;;;;;;;9.23;1.33;;;;;;;;;;5033600;28;20413;-68
2022/11/23 01:31:50;;;;;;;9.80;1.45;;;;;;;;;;5034054;28;20049;-68
2022/11/23 01:34:17;;;;;;;6.63;0.88;;;;;;;;;;5033565;28;20439;-68
2022/11/23 01:36:43;;;;;;;9.05;1.15;;;;;;;;;;5033357;28;20497;-68
2022/11/23 01:39:11;;;;;;;8.02;1.27;;;;;;;;;;5032475;28;20049;-68
2022/11/23 01:41:39;;;;;;;6.07;1.00;;;;;;;;;;5033266;28;20511;-68
2022/11/23 01:44:05;;;;;;;;;;;;;;;;;;5033641;28;20064;-68
2022/11/23 01:46:31;;;;;;;4.47;1.23;;;;;;;;;;5033749;28;20015;-68
2022/11/23 01:49:02;;;;;;;7.70;1.33;;;;;;;;;;5033204;28;20049;-68
2022/11/23 01:51:38;;;;;;;9.30;1.33;;;;;;;;;;5032477;28;20128;-68
2022/11/23 01:54:13;;;;;;;7.78;1.45;;;;;;;;;;5033305;28;20052;-68
2022/11/23 01:56:42;;;;;;;7.50;1.45;;;;;;;;;;5032100;28;20061;-68
2022/11/23 01:59:10;;;;;;;12.68;1.23;;;;;;;;;;5033268;28;20049;-69
2022/11/23 02:01:36;;;;;;;6.63;1.27;;;;;;;;;;5033147;28;20058;-70
2022/11/23 02:04:04;;;;;;;5.95;1.20;;;;;;;;;;5033198;28;20051;-70
2022/11/23 02:06:31;;;;;;;13.43;1.80;;;;;;;;;;5033018;28;20057;-70
2022/11/23 02:08:58;;;;;;;5.38;0.95;;;;;;;;;;5026198;28;20486;-70
2022/11/23 02:11:25;;;;;;;8.27;1.58;;;;;;;;;;5032628;28;20042;-70
2022/11/23 02:13:51;;;;;;;9.57;1.63;;;;;;;;;;5031715;28;20041;-70
2022/11/23 02:16:18;;;;;;;8.98;1.20;;;;;;;;;;5031643;28;20067;-69
2022/11/23 02:18:47;;;;;;;9.43;1.77;;;;;;;;;;5032573;28;20053;-69
2022/11/23 02:21:13;;;;;;;6.05;1.23;;;;;;;;;;5031323;28;20049;-70
2022/11/23 02:23:52;;;;;;;8.90;1.13;;;;;;;;;;5032630;28;20042;-70
2022/11/23 02:26:30;;;;;;;8.27;1.52;;;;;;;;;;5032634;28;20515;-70
2022/11/23 02:29:05;;;;;;;5.88;1.10;;;;;;;;;;5031327;28;20132;-67
2022/11/23 02:31:31;;;;;;;5.38;1.30;;;;;;;;;;5015130;28;20056;-69
2022/11/23 02:33:57;;;;;;;8.10;1.15;;;;;;;;;;5032405;28;20053;-69
2022/11/23 02:36:30;;;;;;;12.43;1.35;;;;;;;;;;5032268;28;20049;-70
2022/11/23 02:38:58;;;;;;;8.30;1.67;;;;;;;;;;5032331;28;20057;-70
2022/11/23 02:41:24;;;;;;;8.40;1.40;;;;;;;;;;5032499;28;20046;-67
2022/11/23 02:43:53;;;;;;;10.40;1.70;;;;;;;;;;5032235;28;20328;-70
2022/11/23 02:46:19;;;;;;;8.20;1.30;;;;;;;;;;5032197;28;20045;-69
2022/11/23 02:48:46;;;;;;;4.60;1.20;;;;;;;;;;5032197;28;20515;-69
2022/11/23 02:51:12;;;;;;;8.35;1.20;;;;;;;;;;5032351;28;20444;-69
2022/11/23 02:53:39;;;;;;;5.13;0.98;;;;;;;;;;5031950;28;20570;-69
2022/11/23 02:56:05;;;;;;;7.28;1.15;;;;;;;;;;5031116;28;20474;-70
2022/11/23 02:58:32;;;;;;;8.77;1.02;;;;;;;;;;5031960;28;20041;-70
2022/11/23 03:00:58;;;;;;;6.50;1.27;;;;;;;;;;5031890;28;20047;-69
2022/11/23 03:03:24;;;;;;;7.03;1.13;;;;;;;;;;5032007;28;20049;-69
2022/11/23 03:05:51;;;;;;;5.13;1.20;;;;;;;;;;5032190;28;20073;-70
2022/11/23 03:08:17;;;;;;;6.28;1.30;;;;;;;;;;5031768;28;20398;-69
2022/11/23 03:10:44;;;;;;;8.60;1.55;;;;;;;;;;5031991;28;20075;-70
2022/11/23 03:13:11;;;;;;;7.63;1.20;;;;;;;;;;5032173;28;20057;-69
2022/11/23 03:15:37;;;;;;;9.27;1.35;;;;;;;;;;5031718;28;20053;-70
2022/11/23 03:18:03;;;;;;;7.88;1.17;;;;;;;;;;5031549;28;20056;-70
2022/11/23 03:20:30;;;;;;;9.48;2.03;;;;;;;;;;5030676;28;20396;-70
2022/11/23 03:22:56;;;;;;;7.13;1.10;;;;;;;;;;5032022;28;20402;-70
2022/11/23 03:25:22;;;;;;;6.30;1.27;;;;;;;;;;5030347;28;20050;-70
2022/11/23 03:27:49;;;;;;;2.47;1.02;;;;;;;;;;5032134;28;20060;-70
2022/11/23 03:30:15;;;;;;;6.82;1.60;;;;;;;;;;5031577;28;20060;-70
2022/11/23 03:32:41;;;;;;;8.02;1.20;;;;;;;;;;5031728;28;20056;-70
2022/11/23 03:35:08;;;;;;;10.00;1.17;;;;;;;;;;5030669;28;20057;-69
2022/11/23 03:37:34;;;;;;;11.02;1.50;;;;;;;;;;5031539;28;20060;-69
2022/11/23 03:40:01;;;;;;;9.82;1.35;;;;;;;;;;5031917;28;20045;-70
2022/11/23 03:42:28;;;;;;;7.97;1.20;;;;;;;;;;5031588;28;20140;-69
2022/11/23 03:44:54;;;;;;;14.20;1.50;;;;;;;;;;5031774;28;20044;-69
2022/11/23 03:47:21;;;;;;;8.70;1.77;;;;;;;;;;5031605;28;20058;-70
2022/11/23 03:49:47;;;;;;;13.15;1.90;;;;;;;;;;5031616;28;20136;-69
2022/11/23 03:52:13;;;;;;;9.43;1.95;;;;;;;;;;5031552;28;20060;-70
2022/11/23 03:54:40;;;;;;;7.30;1.15;;;;;;;;;;5031632;28;20053;-69
2022/11/23 03:57:06;;;;;;;9.23;1.40;;;;;;;;;;5031312;28;20061;-69
2022/11/23 03:59:32;;;;;;;9.73;1.70;;;;;;;;;;5031311;28;20045;-69
2022/11/23 04:01:59;;;;;;;11.27;1.80;;;;;;;;;;5031838;28;20053;-69
2022/11/23 04:04:26;;;;;;;11.75;1.85;;;;;;;;;;5031341;28;20056;-68
2022/11/23 04:06:52;;;;;;;14.82;1.40;;;;;;;;;;5031288;28;20041;-68
2022/11/23 04:09:18;;;;;;;8.20;1.52;;;;;;;;;;5031182;28;20053;-67
2022/11/23 04:11:45;;;;;;;13.02;1.50;;;;;;;;;;5031172;28;20045;-67
2022/11/23 04:14:12;;;;;;;15.30;1.67;;;;;;;;;;5032427;28;20076;-67
2022/11/23 04:16:38;;;;;;;11.30;1.60;;;;;;;;;;5035287;28;20061;-67
2022/11/23 04:19:04;;;;;;;12.93;1.50;;;;;;;;;;5035038;28;20417;-68
2022/11/23 04:21:31;;;;;;;14.07;1.83;;;;;;;;;;5035094;28;20058;-67
2022/11/23 04:23:57;;;;;;;11.20;1.80;;;;;;;;;;5034796;28;20056;-67
2022/11/23 04:26:23;;;;;;;10.60;1.63;;;;;;;;;;5034828;28;20503;-67
2022/11/23 04:28:50;;;;;;;6.47;1.27;;;;;;;;;;5034699;28;20544;-67
2022/11/23 04:31:16;;;;;;;7.95;1.48;;;;;;;;;;5034896;28;20056;-67
2022/11/23 04:33:42;;;;;;;8.30;1.25;;;;;;;;;;5034884;28;20049;-68
2022/11/23 04:36:09;;;;;;;12.60;2.30;;;;;;;;;;5034753;28;20072;-67
2022/11/23 04:38:35;;;;;;;13.38;1.38;;;;;;;;;;5033394;28;20045;-69
2022/11/23 04:41:02;;;;;;;10.20;1.08;;;;;;;;;;5033293;28;20480;-68
2022/11/23 04:43:30;;;;;;;9.88;1.40;;;;;;;;;;5034512;28;20045;-67
2022/11/23 04:45:57;;;;;;;15.05;1.63;;;;;;;;;;5034755;28;20452;-70
2022/11/23 04:48:23;;;;;;;10.70;1.50;;;;;;;;;;5034629;28;20064;-70
2022/11/23 04:50:50;;;;;;;11.13;1.80;;;;;;;;;;5034720;28;20061;-70
2022/11/23 04:53:21;;;;;;;8.48;1.40;;;;;;;;;;5034448;28;20053;-68
2022/11/23 04:55:47;;;;;;;5.97;1.35;;;;;;;;;;5034349;28;20053;-68
2022/11/23 04:58:13;;;;;;;11.52;1.30;;;;;;;;;;5034392;28;20048;-68
2022/11/23 05:00:40;;;;;;;7.80;1.67;;;;;;;;;;5034436;28;20147;-70
2022/11/23 05:03:07;;;;;;;8.40;1.30;;;;;;;;;;5034034;28;20049;-69
2022/11/23 05:05:35;;;;;;;9.68;1.20;;;;;;;;;;5033993;28;20489;-71
2022/11/23 05:08:02;;;;;;;9.93;1.70;;;;;;;;;;5033997;28;20602;-72
2022/11/23 05:10:28;;;;;;;10.18;1.55;;;;;;;;;;5032904;28;20375;-72
2022/11/23 05:12:55;;;;;;;12.05;1.33;;;;;;;;;;5034356;28;20049;-72
2022/11/23 05:15:22;;;;;;;9.15;1.98;;;;;;;;;;5032778;28;20060;-73
2022/11/23 05:17:49;;;;;;;5.45;1.30;;;;;;;;;;5034010;28;20057;-73
2022/11/23 05:20:18;;;;;;;6.32;1.48;;;;;;;;;;5033852;28;20046;-73
2022/11/23 05:22:44;;;;;;;8.05;0.75;;;;;;;;;;5034017;28;20043;-74
2022/11/23 05:25:11;;;;;;;6.15;1.15;;;;;;;;;;5033751;28;20408;-73
2022/11/23 05:27:38;;;;;;;2.85;0.90;;;;;;;;;;5034027;28;20041;-72
2022/11/23 05:30:04;;;;;;;3.97;0.90;;;;;;;;;;5033640;28;20489;-72
2022/11/23 05:32:31;;;;;;;5.82;0.65;;;;;;;;;;5033984;28;20053;-74
2022/11/23 05:34:58;;;;;;;4.35;0.50;;;;;;;;;;5033726;28;20045;-71
2022/11/23 05:37:24;;;;;;;4.05;0.93;;;;;;;;;;5033280;28;20042;-71
2022/11/23 05:39:52;;;;;;;1.65;0.65;;;;;;;;;;5033732;28;20474;-72
2022/11/23 05:42:18;;;;;;;1.50;0.38;;;;;;;;;;5033157;28;20046;-72
2022/11/23 05:44:45;;;;;;;0.85;0.22;;;;;;;;;;5032232;28;20045;-74
2022/11/23 05:47:11;;;;;;;0.90;0.20;;;;;;;;;;5033463;28;20088;-74
2022/11/23 05:49:38;;;;;;;4.10;0.30;;;;;;;;;;5022808;28;20060;-72
2022/11/23 05:52:05;;;;;;;0.55;0.10;;;;;;;;;;5022377;28;20049;-74
2022/11/23 05:54:32;;;;;;;2.00;0.22;;;;;;;;;;5031858;28;20056;-74
2022/11/23 05:56:59;;;;;;;1.55;0.15;;;;;;;;;;5033311;28;20559;-75
2022/11/23 05:59:25;;;;;;;0.28;0.08;;;;;;;;;;5033256;28;20053;-75
2022/11/23 06:01:51;;;;;;;1.85;0.20;;;;;;;;;;5033189;28;20049;-72
2022/11/23 06:04:18;;;;;;;1.17;0.10;;;;;;;;;;5033214;28;20049;-73
2022/11/23 06:06:44;;;;;;;0.35;0.13;;;;;;;;;;5032852;28;20053;-75
2022/11/23 06:09:11;;;;;;;1.27;0.17;;;;;;;;;;5033463;28;20046;-74
2022/11/23 06:11:37;;;;;;;2.08;0.10;;;;;;;;;;5031866;28;20050;-74
2022/11/23 06:14:03;;;;;;;0.10;0.10;;;;;;;;;;5033063;28;20059;-73
2022/11/23 06:16:33;;;;;;;2.45;0.10;;;;;;;;;;5031492;28;20049;-72
2022/11/23 06:18:59;;;;;;;0.63;0.08;;;;;;;;;;5032617;28;20045;-72
2022/11/23 06:21:25;;;;;;;0.45;0.30;;;;;;;;;;5032604;28;20051;-71
2022/11/23 06:23:52;;;;;;;1.23;0.10;;;;;;;;;;5032598;28;20564;-71
2022/11/23 06:26:18;;;;;;;1.55;0.13;;;;;;;;;;5032831;28;20382;-71
2022/11/23 06:28:44;;;;;;;4.45;0.30;;;;;;;;;;5032656;28;20053;-72
2022/11/23 06:31:11;;;;;;;1.83;0.10;;;;;;;;;;5032736;28;20053;-71
2022/11/23 06:33:37;;;;;;;2.60;0.30;;;;;;;;;;5032779;28;20049;-71
2022/11/23 06:36:04;;;;;;;1.42;0.10;;;;;;;;;;5031961;28;20056;-71
2022/11/23 06:38:30;;;;;;;1.65;0.20;;;;;;;;;;5032253;28;20075;-73
2022/11/23 06:41:00;;;;;;;1.58;0.15;;;;;;;;;;5032419;28;20054;-73
2022/11/23 06:43:27;;;;;;;0.52;0.20;;;;;;;;;;5032389;28;20049;-73
2022/11/23 06:45:54;;;;;;;3.35;0.52;;;;;;;;;;5030968;28;20077;-73
2022/11/23 06:48:20;;;;;;;4.60;0.20;;;;;;;;;;5032280;28;20737;-72
2022/11/23 06:50:46;;;;;;;1.65;0.30;;;;;;;;;;5032490;28;20057;-73
2022/11/23 06:53:14;;;;;;;3.40;0.60;;;;;;;;;;5031807;28;20057;-73
2022/11/23 06:55:41;;;;;;;2.05;0.20;;;;;;;;;;5032048;28;20053;-73
2022/11/23 06:58:08;;;;;;;6.30;0.57;;;;;;;;;;5030895;28;20524;-73
2022/11/23 07:00:34;;;;;;;3.10;0.38;;;;;;;;;;5032137;28;20050;-73
2022/11/23 07:03:01;;;;;;;2.17;0.70;;;;;;;;;;5021065;28;20049;-72
2022/11/23 07:05:27;;;;;;;2.78;0.40;;;;;;;;;;5012249;28;20045;-75
2022/11/23 07:07:53;;;;;;;3.42;0.40;;;;;;;;;;5012343;28;20050;-73
2022/11/23 07:10:20;;;;;;;1.67;0.32;;;;;;;;;;5028237;28;20476;-73
2022/11/23 07:12:46;;;;;;;1.52;0.22;;;;;;;;;;5031941;28;20042;-73
2022/11/23 07:15:13;;;;;;;1.38;0.20;;;;;;;;;;5017051;28;20508;-73
2022/11/23 07:17:40;;;;;;;3.00;0.50;;;;;;;;;;5017904;28;20044;-73
2022/11/23 07:20:07;;;;;;;6.28;0.85;;;;;;;;;;5012188;28;20306;-74
2022/11/23 07:22:34;;;;;;;5.18;0.40;;;;;;;;;;5011837;28;20056;-74
2022/11/23 07:25:00;;;;;;;1.60;0.25;;;;;;;;;;5020614;28;20063;-73
2022/11/23 07:27:27;;;;;;;5.47;0.80;;;;;;;;;;5030605;28;20046;-74
2022/11/23 07:29:53;;;;;;;4.18;0.30;;;;;;;;;;5024700;28;20082;-73
2022/11/23 07:32:19;;;;;;;5.15;0.60;;;;;;;;;;5011678;28;20060;-72
2022/11/23 07:34:46;;;;;;;4.72;0.50;;;;;;;;;;5011897;28;20052;-72
2022/11/23 07:37:12;;;;;;;4.95;0.70;;;;;;;;;;5011942;28;20075;-75
2022/11/23 07:39:38;;;;;;;4.40;0.63;;;;;;;;;;5019020;28;20045;-72
2022/11/23 07:42:23;;;;;;;5.22;0.77;;;;;;;;;;5031410;28;20547;-72
2022/11/23 07:45:03;;;;;;;11.20;1.50;;;;;;;;;;5012147;28;20068;-71
2022/11/23 07:47:29;;;;;;;13.68;1.65;;;;;;;;;;5024457;28;20055;-71
2022/11/23 07:49:56;;;;;;;6.88;1.55;;;;;;;;;;5035882;28;20053;-70
2022/11/23 07:52:22;;;;;;;7.55;1.23;;;;;;;;;;5035912;28;20390;-71
2022/11/23 07:54:50;;;;;;;9.93;1.50;;;;;;;;;;5032882;28;20049;-71
2022/11/23 07:57:16;;;;;;;7.32;0.90;;;;;;;;;;5015120;28;20062;-71
2022/11/23 07:59:42;;;;;;;5.93;0.85;;;;;;;;;;5014451;28;20045;-72
2022/11/23 08:02:11;;;;;;;6.57;1.35;;;;;;;;;;5015658;28;20058;-71
2022/11/23 08:04:37;;;;;;;5.50;1.00;;;;;;;;;;5015455;28;20604;-69
2022/11/23 08:07:04;;;;;;;6.63;0.93;;;;;;;;;;5016325;28;20053;-72
2022/11/23 08:09:30;;;;;;;4.88;1.08;;;;;;;;;;5035417;28;20049;-71
2022/11/23 08:11:57;;;;;;;8.13;1.20;;;;;;;;;;5035095;28;20132;-69
2022/11/23 08:14:23;;;;;;;8.15;1.17;;;;;;;;;;5030098;28;20046;-71
2022/11/23 08:16:51;;;;;;;6.73;1.43;;;;;;;;;;5025489;28;20056;-68
2022/11/23 08:19:17;;;;;;;8.70;1.80;;;;;;;;;;5017332;28;20708;-69
2022/11/23 08:21:44;;;;;;;8.90;1.02;;;;;;;;;;5015233;28;20049;-69
2022/11/23 08:24:11;;;;;;;5.10;0.60;;;;;;;;;;5031430;28;20051;-67
2022/11/23 08:26:37;;;;;;;5.53;0.70;;;;;;;;;;5035159;28;20121;-69
2022/11/23 08:29:04;;;;;;;11.48;1.20;;;;;;;;;;5035085;28;20160;-68
2022/11/23 08:31:31;;;;;;;5.57;1.13;;;;;;;;;;5028011;28;20049;-68
2022/11/23 08:33:57;;;;;;;8.65;1.35;;;;;;;;;;5021062;28;20053;-68
2022/11/23 08:36:28;;;;;;;8.38;1.50;;;;;;;;;;5014858;28;20057;-68
2022/11/23 08:38:55;;;;;;;11.10;1.58;;;;;;;;;;5017029;28;20510;-68
2022/11/23 08:41:22;;;;;;;8.55;1.15;;;;;;;;;;5023939;28;20081;-69
2022/11/23 08:43:49;;;;;;;10.10;1.13;;;;;;;;;;5021429;28;20530;-68
2022/11/23 08:46:16;;;;;;;4.70;1.02;;;;;;;;;;5033109;28;20148;-68
2022/11/23 08:48:42;;;;;;;8.48;1.67;;;;;;;;;;5034114;28;20060;-68
2022/11/23 08:51:09;;;;;;;5.20;0.97;;;;;;;;;;5034538;28;20084;-68
2022/11/23 08:53:36;;;;;;;6.18;1.88;;;;;;;;;;5033101;28;20141;-71
2022/11/23 08:56:06;;;;;;;5.22;0.77;;;;;;;;;;5020083;28;20089;-71
2022/11/23 08:58:33;;;;;;;6.22;1.02;;;;;;;;;;5016015;28;20058;-72
2022/11/23 09:01:00;;;;;;;5.85;0.95;;;;;;;;;;5015473;28;20050;-71
2022/11/23 09:03:27;;;;;;;4.88;1.73;;;;;;;;;;5025192;28;20046;-70
2022/11/23 09:05:58;;;;;;;6.43;1.48;;;;;;;;;;5025849;28;20576;-71
2022/11/23 09:08:25;;;;;;;4.05;1.05;;;;;;;;;;5022881;28;20136;-72
2022/11/23 09:10:51;;;;;;;5.73;1.20;;;;;;;;;;5033644;28;20052;-71
2022/11/23 09:13:18;;;;;;;6.47;1.00;;;;;;;;;;5033694;28;20105;-71
2022/11/23 09:15:45;;;;;;;6.13;1.27;;;;;;;;;;5023814;28;20050;-70
2022/11/23 09:18:12;;;;;;;9.85;1.30;;;;;;;;;;5026070;28;20049;-71
2022/11/23 09:20:39;;;;;;;7.45;1.70;;;;;;;;;;5018655;28;20057;-71
2022/11/23 09:23:06;;;;;;;12.88;1.77;;;;;;;;;;5032206;28;20045;-69
2022/11/23 09:25:41;;;;;;;9.40;2.05;;;;;;;;;;5033216;28;20060;-69
2022/11/23 09:28:08;;;;;;;7.82;1.58;;;;;;;;;;5032045;28;20041;-72
2022/11/23 09:30:34;;;;;;;6.53;1.20;;;;;;;;;;5025130;28;20390;-72
2022/11/23 09:33:01;;;;;;;7.70;1.13;;;;;;;;;;5013537;28;20053;-70
2022/11/23 09:35:27;;;;;;;6.18;1.25;;;;;;;;;;5011444;28;20576;-71
2022/11/23 09:37:56;;;;;;;9.02;1.40;;;;;;;;;;5013439;28;20062;-71
2022/11/23 09:40:23;;;;;;;7.88;1.30;;;;;;;;;;5021715;28;20045;-71
2022/11/23 09:42:50;;;;;;;9.70;1.80;;;;;;;;;;5033135;28;20053;-71
2022/11/23 09:45:19;;;;;;;8.90;1.75;;;;;;;;;;5032964;28;20045;-71
2022/11/23 09:48:03;;;;;;;6.10;1.23;;;;;;;;;;5018157;28;20061;-71
2022/11/23 09:50:45;;;;;;;7.68;1.58;;;;;;;;;;5000594;28;20413;-71
2022/11/23 09:53:13;;;;;;;7.65;1.30;;;;;;;;;;5018139;28;20561;-71
2022/11/23 09:55:46;;;;;;;7.13;1.30;;;;;;;;;;5033155;28;20053;-69
2022/11/23 09:58:15;;;;;;;8.68;1.67;;;;;;;;;;5022943;28;20493;-70
2022/11/23 10:00:45;;;;;;;8.68;1.73;;;;;;;;;;5032205;28;20132;-69
2022/11/23 10:03:13;;;;;;;8.13;1.65;;;;;;;;;;5018015;28;20519;-68
2022/11/23 10:05:40;;;;;;;9.00;1.60;;;;;;;;;;5031558;28;20053;-71
2022/11/23 10:08:15;;;;;;;9.48;2.15;;;;;;;;;;5032301;28;20088;-69
2022/11/23 10:10:43;;;;;;;9.50;1.67;;;;;;;;;;5030263;28;20050;-68
2022/11/23 10:13:23;;;;;;;12.73;2.00;;;;;;;;;;5032509;28;20103;-70
2022/11/23 10:15:53;;;;;;;10.60;1.80;;;;;;;;;;5032566;28;20523;-69
2022/11/23 10:18:19;;;;;;;13.75;2.58;;;;;;;;;;5032099;28;20053;-70
2022/11/23 10:20:49;;;;;;;9.27;1.70;;;;;;;;;;5032328;28;20053;-68
2022/11/23 10:23:36;;;;;;;8.50;1.70;;;;;;;;;;5028089;28;20304;-69
2022/11/23 10:26:02;;;;;;;10.65;2.25;;;;;;;;;;5023247;28;20049;-69
2022/11/23 10:28:29;;;;;;;14.80;3.08;;;;;;;;;;5031934;28;20045;-70
2022/11/23 10:31:03;;;;;;;11.68;2.33;;;;;;;;;;5016199;28;20412;-69
2022/11/23 10:33:38;;;;;;;10.57;1.90;;;;;;;;;;5032220;28;20057;-70
2022/11/23 10:36:08;;;;;;;13.65;2.97;;;;;;;;;;5030103;28;20474;-69
2022/11/23 10:38:35;;;;;;;9.15;2.00;;;;;;;;;;5031605;28;20058;-68
2022/11/23 10:41:04;;;;;;;14.88;2.90;;;;;;;;;;5031932;28;20051;-68
2022/11/23 10:43:35;;;;;;;11.93;1.83;;;;;;;;;;5032118;28;20046;-68
2022/11/23 10:46:22;;;;;;;11.60;2.60;;;;;;;;;;5031939;28;20125;-72
2022/11/23 10:48:50;;;;;;;15.98;2.88;;;;;;;;;;5031907;28;20057;-74
2022/11/23 10:51:36;;;;;;;13.40;3.47;;;;;;;;;;5031743;28;20056;-70
2022/11/23 10:54:04;;;;;;;10.02;2.35;;;;;;;;;;5031606;28;20072;-72
2022/11/23 10:56:32;;;;;;;11.80;2.17;;;;;;;;;;5031397;28;20073;-74
2022/11/23 10:58:58;;;;;;;13.52;2.45;;;;;;;;;;5022150;28;20042;-71
2022/11/23 11:01:26;;;;;;;9.07;2.30;;;;;;;;;;5025468;28;20069;-73
2022/11/23 11:03:53;;;;;;;7.80;1.98;;;;;;;;;;5030344;28;20041;-76
2022/11/23 11:06:26;;;;;;;7.88;2.22;;;;;;;;;;5031604;28;20053;-70
2022/11/23 11:08:54;;;;;;;7.97;1.88;;;;;;;;;;5031203;28;20041;-75
2022/11/23 11:11:25;;;;;;;8.38;1.77;;;;;;;;;;5025093;28;20560;-72
2022/11/23 11:14:02;;;;;;;8.85;2.67;;;;;;;;;;5011561;28;20054;-70
2022/11/23 11:16:33;;;;;;;6.65;1.65;;;;;;;;;;5016543;28;20049;-70
2022/11/23 11:19:18;;;;;;;10.50;2.00;;;;;;;;;;5030799;28;20069;-70
2022/11/23 11:21:44;;;;;;;6.60;1.70;;;;;;;;;;5030890;28;20128;-70
2022/11/23 11:24:29;;;;;;;7.00;1.63;;;;;;;;;;5031227;28;20068;-69
2022/11/23 11:27:17;;;;;;;8.25;1.75;;;;;;;;;;5031480;28;20056;-73
2022/11/23 11:29:43;;;;;;;8.98;1.33;;;;;;;;;;5030887;28;20077;-70
2022/11/23 11:32:25;;;;;;;8.35;1.25;;;;;;;;;;5031253;28;20063;-74
2022/11/23 11:34:54;;;;;;;5.25;1.15;;;;;;;;;;5029392;28;20049;-68
2022/11/23 11:37:33;;;;;;;9.02;1.65;;;;;;;;;;5031009;28;20045;-71
2022/11/23 11:40:18;;;;;;;6.38;1.08;;;;;;;;;;5016844;28;20046;-69
2022/11/23 11:43:03;;;;;;;9.90;1.38;;;;;;;;;;5029610;28;20557;-71
2022/11/23 11:45:36;;;;;;;8.27;1.88;;;;;;;;;;5006419;28;20053;-70
2022/11/23 11:48:09;;;;;;;6.93;1.67;;;;;;;;;;5031130;28;20047;-70
2022/11/23 11:50:40;;;;;;;10.23;2.03;;;;;;;;;;5029651;28;20045;-70
2022/11/23 11:53:16;;;;;;;8.65;1.95;;;;;;;;;;5031074;28;20060;-72
2022/11/23 11:55:49;;;;;;;8.18;1.80;;;;;;;;;;5031086;28;20080;-70
2022/11/23 11:58:16;;;;;;;10.32;2.13;;;;;;;;;;5031071;28;20054;-71
2022/11/23 12:00:42;;;;;;;;;;;;;;;;;;5031207;28;20052;-70
2022/11/23 12:03:29;;;;;;;14.32;2.55;;;;;;;;;;5016192;28;19960;-71
2022/11/23 12:06:01;;;;;;;11.18;2.10;;;;;;;;;;5016600;28;20057;-74
2022/11/23 12:08:51;;;;;;;10.65;2.40;;;;;;;;;;5016563;28;20146;-73
2022/11/23 12:11:18;;;;;;;10.25;2.20;;;;;;;;;;5027541;28;20050;-71
2022/11/23 12:13:45;;;;;;;;;;;;;;;;;;5011613;28;20064;-70
2022/11/23 12:16:15;;;;;;;12.30;2.70;;;;;;;;;;5009938;28;19944;-72
2022/11/23 12:18:44;;;;;;;12.65;3.03;;;;;;;;;;5016031;28;20053;-71
2022/11/23 12:21:14;;;;;;;12.10;2.42;;;;;;;;;;5025250;28;20053;-71
2022/11/23 12:23:57;;;;;;;12.35;2.63;;;;;;;;;;5016173;28;20068;-68
2022/11/23 12:26:32;;;;;;;11.00;2.05;;;;;;;;;;5030644;28;20477;-70
2022/11/23 12:29:17;;;;;;;9.98;2.45;;;;;;;;;;5030581;28;20047;-67
2022/11/23 12:31:47;;;;;;;12.68;2.95;;;;;;;;;;5030759;28;20045;-70
2022/11/23 12:34:33;;;;;;;13.95;2.30;;;;;;;;;;5011645;28;20512;-76
2022/11/23 12:37:10;;;;;;;11.60;2.22;;;;;;;;;;5014597;28;20058;-75
2022/11/23 12:39:55;;;;;;;20.20;2.83;;;;;;;;;;5014021;28;20058;-71
2022/11/23 12:42:30;;;;;;;16.10;2.78;;;;;;;;;;5031347;28;20042;-71
2022/11/23 12:45:05;;;;;;;11.60;2.30;;;;;;;;;;5031825;28;20045;-72
2022/11/23 12:47:50;;;;;;;14.88;2.72;;;;;;;;;;5022129;28;20049;-69
2022/11/23 12:50:34;;;;;;;15.68;2.55;;;;;;;;;;5032506;28;20053;-70
2022/11/23 12:53:15;;;;;;;11.85;2.67;;;;;;;;;;5034053;28;20055;-68
2022/11/23 12:55:52;;;;;;;13.85;2.92;;;;;;;;;;5030090;28;20050;-67
2022/11/23 12:58:26;;;;;;;10.50;2.25;;;;;;;;;;5024800;28;20457;-68
2022/11/23 13:01:05;;;;;;;17.35;3.08;;;;;;;;;;5019210;28;20045;-68
2022/11/23 13:03:38;;;;;;;11.48;2.45;;;;;;;;;;5021487;28;20077;-68
2022/11/23 13:06:04;;;;;;;14.73;2.65;;;;;;;;;;5028959;28;20048;-68
2022/11/23 13:08:34;;;;;;;17.25;3.33;;;;;;;;;;5020934;28;20049;-68
2022/11/23 13:11:19;;;;;;;11.38;2.75;;;;;;;;;;5021986;28;20224;-67
2022/11/23 13:13:48;;;;;;;13.25;2.85;;;;;;;;;;5033631;28;20744;-68
2022/11/23 13:16:33;;;;;;;12.73;2.22;;;;;;;;;;5028920;28;20133;-68
2022/11/23 13:19:06;;;;;;;10.43;1.98;;;;;;;;;;5031322;28;20536;-70
2022/11/23 13:21:38;;;;;;;9.65;1.83;;;;;;;;;;5033637;28;20041;-70
2022/11/23 13:24:22;;;;;;;7.18;1.17;;;;;;;;;;5018751;28;20099;-69
2022/11/23 13:27:09;;;;;;;6.00;1.10;;;;;;;;;;5017472;28;20129;-69
2022/11/23 13:29:48;;;;;;;6.03;1.23;;;;;;;;;;5021642;28;20412;-71
2022/11/23 13:32:33;;;;;;;5.00;1.23;;;;;;;;;;5033682;28;20382;-67
2022/11/23 13:35:00;;;;;;;3.90;0.98;;;;;;;;;;5031527;28;20079;-68
2022/11/23 13:37:27;;;;;;;4.80;1.07;;;;;;;;;;5018618;28;20049;-68
2022/11/23 13:39:56;;;;;;;3.50;0.95;;;;;;;;;;5022273;28;20107;-68
2022/11/23 13:42:26;;;;;;;4.85;0.80;;;;;;;;;;5029575;28;20481;-68
2022/11/23 13:45:12;;;;;;;2.92;0.90;;;;;;;;;;5031502;28;20038;-68
2022/11/23 13:47:39;;;;;;;5.35;0.80;;;;;;;;;;5031795;28;20120;-68
2022/11/23 13:50:17;;;;;;;5.15;0.80;;;;;;;;;;5032905;28;20088;-67
2022/11/23 13:52:48;;;;;;;7.43;1.13;;;;;;;;;;5032991;28;20060;-68
2022/11/23 13:55:20;;;;;;;5.25;0.98;;;;;;;;;;5032650;28;20059;-66
2022/11/23 13:58:07;;;;;;;7.75;1.55;;;;;;;;;;5016841;28;20056;-69
2022/11/23 14:00:43;;;;;;;5.80;1.00;;;;;;;;;;5032272;28;20073;-67
2022/11/23 14:03:28;;;;;;;6.07;1.27;;;;;;;;;;5032837;28;20432;-69
2022/11/23 14:05:58;;;;;;;8.40;1.58;;;;;;;;;;5032321;28;20054;-71
2022/11/23 14:08:24;;;;;;;6.00;1.50;;;;;;;;;;5032359;28;20141;-69
2022/11/23 14:10:52;;;;;;;7.45;1.58;;;;;;;;;;5032158;28;20061;-70
2022/11/23 14:13:31;;;;;;;7.25;1.52;;;;;;;;;;5032316;28;20132;-69
2022/11/23 14:15:59;;;;;;;7.88;1.35;;;;;;;;;;5032830;28;20057;-69
2022/11/23 14:18:29;;;;;;;7.78;1.58;;;;;;;;;;5021981;28;20053;-68
2022/11/23 14:21:12;;;;;;;8.15;1.40;;;;;;;;;;5029080;28;20050;-68
2022/11/23 14:23:41;;;;;;;6.82;1.65;;;;;;;;;;5032319;28;20084;-68
2022/11/23 14:26:17;;;;;;;11.02;1.92;;;;;;;;;;5027855;28;20468;-69
2022/11/23 14:28:43;;;;;;;10.48;1.98;;;;;;;;;;5012655;28;20141;-69
2022/11/23 14:31:16;;;;;;;7.25;1.88;;;;;;;;;;5030640;28;20054;-68
2022/11/23 14:34:03;;;;;;;10.30;2.28;;;;;;;;;;5030778;28;20053;-69
2022/11/23 14:36:32;;;;;;;10.30;1.98;;;;;;;;;;5030229;28;20060;-67
2022/11/23 14:39:25;;;;;;;8.90;1.73;;;;;;;;;;5030527;28;20063;-68
2022/11/23 14:41:53;;;;;;;7.30;1.70;;;;;;;;;;5032106;28;20149;-67
2022/11/23 14:44:24;;;;;;;12.93;1.88;;;;;;;;;;5031730;28;20502;-68
2022/11/23 14:46:58;;;;;;;8.60;1.95;;;;;;;;;;5031813;28;20489;-67
2022/11/23 14:49:24;;;;;;;7.80;2.08;;;;;;;;;;5031697;28;20042;-66
2022/11/23 14:51:51;;;;;;;8.93;2.15;;;;;;;;;;5031608;28;20057;-68
2022/11/23 14:54:17;;;;;;;9.80;2.10;;;;;;;;;;5021436;28;20490;-68